createdAt,value
2023-02-23T00:00:28.117Z,53.03
2023-02-23T00:03:29.872Z,55.30
2023-02-23T00:06:35.575Z,55.57
2023-02-23T00:09:37.292Z,54.83
2023-02-23T00:12:40.364Z,57.70
2023-02-23T00:15:42.049Z,58.77
2023-02-23T00:18:50.978Z,59.43
2023-02-23T00:21:53.981Z,55.17
2023-02-23T00:24:57.444Z,61.87
2023-02-23T00:27:59.230Z,60.17
2023-02-23T00:31:04.274Z,65.87
2023-02-23T00:34:07.400Z,57.00
2023-02-23T00:37:09.097Z,51.37
2023-02-23T00:40:16.195Z,52.37
2023-02-23T00:43:19.833Z,56.43
2023-02-23T00:46:26.981Z,62.53
2023-02-23T00:49:28.736Z,54.17
2023-02-23T00:52:30.813Z,48.17
2023-02-23T00:55:32.512Z,47.03
2023-02-23T00:58:34.219Z,62.77
2023-02-23T01:01:38.932Z,45.90
2023-02-23T01:04:40.668Z,50.73
2023-02-23T01:07:46.325Z,53.03
2023-02-23T01:10:54.002Z,51.53
2023-02-23T01:13:58.026Z,50.80
2023-02-23T01:17:00.243Z,46.73
2023-02-23T01:20:02.033Z,42.77
2023-02-23T01:23:05.155Z,55.37
2023-02-23T01:26:16.986Z,51.27
2023-02-23T01:29:18.838Z,53.77
2023-02-23T01:32:20.614Z,50.07
2023-02-23T01:35:22.961Z,52.30
2023-02-23T01:38:24.837Z,56.93
2023-02-23T01:41:28.324Z,45.77
2023-02-23T01:44:31.055Z,56.63
2023-02-23T01:47:32.844Z,52.30
2023-02-23T01:50:48.278Z,55.53
2023-02-23T01:54:04.514Z,54.03
2023-02-23T01:57:11.239Z,45.53
2023-02-23T02:00:14.938Z,54.47
2023-02-23T02:03:26.796Z,55.80
2023-02-23T02:06:29.507Z,53.67
2023-02-23T02:09:37.897Z,43.13
2023-02-23T02:12:54.759Z,42.93
2023-02-23T02:16:28.846Z,53.47
2023-02-23T02:19:54.758Z,52.47
2023-02-23T02:23:30.840Z,44.60
2023-02-23T02:26:55.557Z,45.80
2023-02-23T02:30:29.005Z,51.60
2023-02-23T02:34:01.577Z,51.30
2023-02-23T02:37:12.349Z,48.43
2023-02-23T02:40:22.828Z,48.83
2023-02-23T02:43:51.471Z,50.70
2023-02-23T02:46:59.949Z,45.97
2023-02-23T02:50:15.187Z,46.40
2023-02-23T02:53:48.410Z,48.37
2023-02-23T02:56:51.758Z,41.20
2023-02-23T03:00:11.963Z,40.97
2023-02-23T03:03:57.280Z,45.43
2023-02-23T03:07:26.424Z,45.27
2023-02-23T03:11:02.480Z,41.87
2023-02-23T03:14:50.425Z,44.00
2023-02-23T03:18:24.582Z,45.10
2023-02-23T03:21:52.339Z,46.40
2023-02-23T03:25:32.261Z,54.60
2023-02-23T03:29:04.937Z,42.60
2023-02-23T03:32:58.836Z,44.73
2023-02-23T03:36:21.571Z,45.93
2023-02-23T03:39:44.750Z,51.90
2023-02-23T03:43:08.479Z,47.97
2023-02-23T03:46:32.725Z,48.00
2023-02-23T03:49:57.206Z,50.87
2023-02-23T03:53:21.164Z,44.57
2023-02-23T03:56:45.271Z,42.73
2023-02-23T04:00:13.646Z,45.03
2023-02-23T04:03:36.655Z,50.60
2023-02-23T04:07:01.919Z,49.30
2023-02-23T04:10:23.897Z,48.93
2023-02-23T04:13:29.333Z,57.50
2023-02-23T04:16:32.589Z,62.03
2023-02-23T04:19:34.347Z,63.50
2023-02-23T04:22:36.094Z,58.30
2023-02-23T04:25:37.873Z,66.47
2023-02-23T04:28:39.563Z,72.23
2023-02-23T04:31:44.392Z,64.13
2023-02-23T04:34:46.680Z,74.07
2023-02-23T04:37:48.438Z,72.17
2023-02-23T04:40:50.537Z,71.50
2023-02-23T04:43:52.231Z,71.67
2023-02-23T04:46:53.959Z,78.23
2023-02-23T04:49:55.919Z,70.70
2023-02-23T04:52:57.621Z,74.80
2023-02-23T04:55:59.339Z,75.77
2023-02-23T04:59:01.106Z,69.10
2023-02-23T05:02:03.267Z,69.50
2023-02-23T05:05:05.763Z,78.03
2023-02-23T05:08:07.497Z,71.60
2023-02-23T05:11:09.713Z,73.27
2023-02-23T05:14:12.395Z,80.00
2023-02-23T05:17:14.121Z,70.20
2023-02-23T05:20:16.309Z,78.07
2023-02-23T05:23:18.597Z,69.70
2023-02-23T05:26:20.385Z,75.43
2023-02-23T05:29:22.107Z,67.63
2023-02-23T05:32:24.124Z,79.27
2023-02-23T05:35:26.178Z,85.27
2023-02-23T05:38:27.955Z,76.43
2023-02-23T05:41:29.719Z,79.93
2023-02-23T05:44:31.451Z,93.10
2023-02-23T05:47:35.472Z,76.00
2023-02-23T05:50:37.454Z,91.37
2023-02-23T05:53:39.669Z,82.83
2023-02-23T05:56:42.693Z,81.00
2023-02-23T05:59:44.416Z,76.63
2023-02-23T06:02:46.111Z,83.87
2023-02-23T06:05:54.903Z,89.20
2023-02-23T06:08:56.667Z,78.23
2023-02-23T06:11:59.541Z,69.77
2023-02-23T06:15:01.248Z,77.13
2023-02-23T06:18:03.709Z,80.37
2023-02-23T06:21:06.815Z,82.77
2023-02-23T06:24:08.677Z,85.50
2023-02-23T06:27:11.093Z,83.47
2023-02-23T06:30:13.445Z,84.77
2023-02-23T06:33:15.172Z,84.53
2023-02-23T06:36:18.350Z,81.00
2023-02-23T06:39:20.116Z,75.70
2023-02-23T06:42:21.831Z,84.17
2023-02-23T06:45:23.560Z,88.90
2023-02-23T06:48:25.366Z,78.07
2023-02-23T06:51:27.039Z,78.87
2023-02-23T06:54:28.748Z,98.43
2023-02-23T06:57:30.444Z,88.73
2023-02-23T07:00:32.133Z,80.70
2023-02-23T07:03:35.118Z,84.27
2023-02-23T07:06:37.894Z,75.60
2023-02-23T07:09:40.772Z,78.37
2023-02-23T07:12:42.552Z,78.57
2023-02-23T07:15:44.465Z,73.63
2023-02-23T07:18:46.191Z,83.67
2023-02-23T07:21:47.889Z,91.67
2023-02-23T07:24:49.643Z,86.23
2023-02-23T07:27:51.758Z,87.97
2023-02-23T07:30:56.826Z,86.03
2023-02-23T07:33:58.528Z,82.57
2023-02-23T07:37:00.270Z,79.70
2023-02-23T07:40:02.367Z,87.20
2023-02-23T07:43:04.152Z,75.97
2023-02-23T07:46:06.179Z,83.67
2023-02-23T07:49:07.941Z,84.77
2023-02-23T07:52:09.864Z,83.83
2023-02-23T07:55:11.795Z,81.03
2023-02-23T07:58:13.561Z,77.47
2023-02-23T08:01:15.900Z,92.33
2023-02-23T08:04:18.270Z,79.13
2023-02-23T08:07:20.864Z,80.83
2023-02-23T08:10:22.838Z,89.80
2023-02-23T08:13:24.536Z,85.40
2023-02-23T08:16:28.295Z,86.43
2023-02-23T08:19:30.481Z,85.33
2023-02-23T08:22:47.091Z,88.37
2023-02-23T08:25:50.820Z,98.27
2023-02-23T08:28:53.615Z,84.70
2023-02-23T08:31:56.293Z,81.57
2023-02-23T08:35:00.971Z,89.90
2023-02-23T08:38:02.832Z,77.37
2023-02-23T08:41:05.614Z,78.30
2023-02-23T08:44:07.582Z,77.77
2023-02-23T08:47:09.288Z,75.37
2023-02-23T08:50:11.981Z,70.40
2023-02-23T08:53:13.662Z,71.43
2023-02-23T08:56:15.714Z,65.40
2023-02-23T08:59:17.630Z,60.30
2023-02-23T09:02:19.453Z,75.43
2023-02-23T09:05:21.327Z,62.37
2023-02-23T09:08:23.482Z,84.17
2023-02-23T09:11:25.215Z,66.87
2023-02-23T09:14:27.993Z,65.53
2023-02-23T09:17:29.674Z,68.33
2023-02-23T09:20:31.604Z,59.43
2023-02-23T09:23:34.664Z,65.90
2023-02-23T09:26:40.131Z,63.73
2023-02-23T09:29:42.306Z,69.57
2023-02-23T09:32:45.439Z,66.63
2023-02-23T09:35:47.487Z,60.43
2023-02-23T09:38:56.369Z,61.13
2023-02-23T09:42:26.973Z,61.00
2023-02-23T09:46:00.060Z,59.73
2023-02-23T09:49:03.761Z,56.13
2023-02-23T09:52:07.104Z,55.23
2023-02-23T09:55:14.110Z,51.13
2023-02-23T09:58:35.013Z,45.07
2023-02-23T10:01:48.485Z,49.43
2023-02-23T10:05:01.927Z,47.03
2023-02-23T10:08:09.471Z,56.80
2023-02-23T10:11:48.866Z,56.73
2023-02-23T10:15:08.788Z,52.77
2023-02-23T10:18:50.177Z,54.03
2023-02-23T10:21:57.100Z,43.13
2023-02-23T10:25:25.419Z,59.43
2023-02-23T10:28:33.144Z,54.33
2023-02-23T10:31:44.226Z,50.43
2023-02-23T10:34:48.415Z,48.33
2023-02-23T10:37:52.272Z,48.77
2023-02-23T10:40:56.285Z,43.80
2023-02-23T10:44:02.612Z,43.10
2023-02-23T10:47:22.645Z,44.70
2023-02-23T10:50:28.894Z,43.13
2023-02-23T10:53:37.340Z,42.23
2023-02-23T10:56:46.150Z,43.67
2023-02-23T11:00:20.317Z,38.80
2023-02-23T11:03:37.621Z,39.27
2023-02-23T11:06:39.763Z,36.17
2023-02-23T11:09:46.977Z,37.87
2023-02-23T11:12:49.645Z,37.43
2023-02-23T11:16:10.332Z,39.53
2023-02-23T11:19:26.337Z,35.73
2023-02-23T11:22:32.433Z,33.00
2023-02-23T11:25:34.165Z,45.43
2023-02-23T11:28:41.298Z,37.60
2023-02-23T11:31:49.642Z,35.80
2023-02-23T11:35:20.303Z,33.73
2023-02-23T11:38:23.702Z,37.23
2023-02-23T11:41:25.428Z,31.07
2023-02-23T11:44:27.707Z,39.33
2023-02-23T11:47:31.807Z,38.73
2023-02-23T11:50:35.962Z,39.90
2023-02-23T11:53:43.989Z,30.90
2023-02-23T11:56:52.196Z,37.23
2023-02-23T11:59:55.476Z,35.17
2023-02-23T12:02:59.961Z,39.20
2023-02-23T12:06:02.310Z,39.30
2023-02-23T12:09:26.806Z,39.40
2023-02-23T12:12:31.304Z,41.23
2023-02-23T12:16:00.411Z,34.57
2023-02-23T12:19:08.765Z,35.20
2023-02-23T12:22:16.229Z,33.50
2023-02-23T12:25:42.823Z,37.53
2023-02-23T12:29:09.803Z,36.53
2023-02-23T12:32:26.809Z,34.87
2023-02-23T12:35:40.655Z,34.90
2023-02-23T12:39:06.746Z,35.70
2023-02-23T12:42:14.576Z,34.77
2023-02-23T12:45:48.935Z,34.93
2023-02-23T12:49:02.961Z,31.30
2023-02-23T12:52:19.373Z,35.47
2023-02-23T12:55:52.533Z,34.70
2023-02-23T12:59:15.833Z,31.40
2023-02-23T13:02:21.863Z,28.60
2023-02-23T13:05:28.469Z,36.63
2023-02-23T13:09:05.932Z,36.67
2023-02-23T13:12:16.473Z,28.07
2023-02-23T13:15:58.771Z,27.93
2023-02-23T13:19:29.663Z,28.20
2023-02-23T13:22:59.880Z,30.30
2023-02-23T13:26:47.016Z,30.10
2023-02-23T13:29:52.629Z,34.87
2023-02-23T13:32:55.221Z,35.97
2023-02-23T13:35:58.386Z,32.13
2023-02-23T13:39:17.906Z,30.03
2023-02-23T13:42:39.157Z,27.87
2023-02-23T13:46:01.655Z,35.03
2023-02-23T13:49:34.601Z,34.17
2023-02-23T13:52:43.156Z,27.77
2023-02-23T13:55:51.520Z,31.30
2023-02-23T13:59:04.587Z,27.80
2023-02-23T14:02:35.742Z,31.90
2023-02-23T14:05:44.950Z,30.70
2023-02-23T14:08:54.296Z,35.43
2023-02-23T14:12:16.576Z,29.77
2023-02-23T14:15:28.014Z,36.43
2023-02-23T14:18:32.280Z,30.47
2023-02-23T14:22:01.081Z,34.00
2023-02-23T14:25:35.109Z,30.70
2023-02-23T14:28:43.120Z,31.47
2023-02-23T14:31:57.015Z,29.57
2023-02-23T14:35:02.466Z,35.57
2023-02-23T14:38:08.590Z,36.80
2023-02-23T14:41:11.996Z,32.97
2023-02-23T14:44:31.731Z,32.47
2023-02-23T14:47:45.602Z,28.90
2023-02-23T14:50:47.372Z,34.97
2023-02-23T14:53:55.014Z,34.40
2023-02-23T14:56:58.683Z,39.73
2023-02-23T15:00:02.397Z,32.60
2023-02-23T15:03:09.266Z,30.33
2023-02-23T15:06:11.464Z,34.23
2023-02-23T15:09:29.350Z,33.07
2023-02-23T15:12:37.805Z,26.27
2023-02-23T15:15:45.373Z,33.00
2023-02-23T15:19:30.968Z,35.63
2023-02-23T15:22:36.641Z,37.13
2023-02-23T15:25:40.528Z,27.60
2023-02-23T15:28:45.348Z,33.37
2023-02-23T15:31:52.331Z,26.67
2023-02-23T15:34:59.118Z,33.30
2023-02-23T15:38:14.189Z,29.93
2023-02-23T15:41:30.265Z,29.00
2023-02-23T15:44:43.823Z,35.93
2023-02-23T15:47:46.654Z,33.07
2023-02-23T15:50:53.935Z,38.80
2023-02-23T15:53:55.892Z,33.43
2023-02-23T15:57:04.064Z,33.10
2023-02-23T16:00:35.553Z,32.97
2023-02-23T16:03:44.050Z,36.53
2023-02-23T16:06:51.444Z,35.17
2023-02-23T16:09:56.294Z,35.57
2023-02-23T16:13:00.871Z,32.83
2023-02-23T16:16:09.885Z,37.07
2023-02-23T16:19:14.299Z,27.70
2023-02-23T16:22:24.684Z,37.03
2023-02-23T16:25:28.694Z,28.73
2023-02-23T16:28:32.119Z,29.63
2023-02-23T16:31:44.320Z,35.10
2023-02-23T16:34:51.112Z,36.93
2023-02-23T16:38:01.261Z,34.83
2023-02-23T16:41:04.383Z,33.20
2023-02-23T16:44:07.689Z,34.93
2023-02-23T16:47:09.396Z,37.37
2023-02-23T16:50:24.119Z,33.13
2023-02-23T16:53:25.845Z,35.57
2023-02-23T16:56:28.468Z,36.43
2023-02-23T16:59:30.315Z,39.53
2023-02-23T17:02:32.107Z,35.23
2023-02-23T17:05:33.841Z,29.23
2023-02-23T17:08:36.722Z,34.10
2023-02-23T17:11:40.739Z,33.93
2023-02-23T17:14:42.440Z,32.47
2023-02-23T17:17:44.185Z,30.70
2023-02-23T17:20:45.905Z,34.67
2023-02-23T17:23:53.728Z,37.57
2023-02-23T17:26:56.224Z,33.30
2023-02-23T17:29:57.919Z,37.07
2023-02-23T17:32:59.987Z,36.47
2023-02-23T17:36:06.049Z,27.90
2023-02-23T17:39:09.487Z,33.13
2023-02-23T17:42:11.223Z,33.83
2023-02-23T17:45:12.994Z,29.07
2023-02-23T17:48:14.689Z,31.13
2023-02-23T17:51:16.929Z,37.10
2023-02-23T17:54:18.689Z,34.40
2023-02-23T17:57:25.313Z,31.37
2023-02-23T18:00:28.551Z,30.53
2023-02-23T18:03:32.446Z,31.73
2023-02-23T18:06:34.177Z,29.40
2023-02-23T18:09:36.377Z,33.20
2023-02-23T18:12:38.061Z,35.90
2023-02-23T18:15:39.765Z,30.90
2023-02-23T18:18:44.220Z,34.97
2023-02-23T18:21:45.870Z,34.47
2023-02-23T18:24:47.642Z,32.10
2023-02-23T18:27:51.056Z,38.73
2023-02-23T18:30:52.878Z,33.03
2023-02-23T18:33:54.743Z,32.30
2023-02-23T18:36:58.508Z,35.73
2023-02-23T18:40:00.290Z,39.63
2023-02-23T18:43:02.781Z,37.23
2023-02-23T18:46:09.556Z,45.03
2023-02-23T18:49:20.496Z,45.93
2023-02-23T18:52:22.206Z,43.50
2023-02-23T18:55:24.235Z,48.57
2023-02-23T18:58:25.939Z,30.43
2023-02-23T19:01:30.695Z,32.63
2023-02-23T19:04:32.433Z,37.17
2023-02-23T19:07:34.907Z,146.07
2023-02-23T19:10:36.613Z,53.73
2023-02-23T19:13:38.522Z,30.83
2023-02-23T19:16:41.116Z,27.40
2023-02-23T19:19:42.913Z,30.20
2023-02-23T19:22:46.397Z,23.13
2023-02-23T19:25:51.401Z,28.47
2023-02-23T19:28:53.643Z,32.77
2023-02-23T19:31:55.574Z,31.93
2023-02-23T19:34:57.399Z,29.10
2023-02-23T19:37:59.737Z,30.47
2023-02-23T19:41:05.668Z,31.70
2023-02-23T19:44:07.841Z,31.17
2023-02-23T19:47:09.575Z,14.40
2023-02-23T19:50:18.900Z,16.47
2023-02-23T19:53:20.867Z,9.70
2023-02-23T19:56:24.879Z,13.57
2023-02-23T19:59:28.483Z,12.70
2023-02-23T20:02:30.408Z,20.13
2023-02-23T20:05:42.219Z,14.80
2023-02-23T20:08:45.227Z,20.37
2023-02-23T20:11:48.029Z,17.53
2023-02-23T20:14:49.726Z,11.80
2023-02-23T20:17:51.415Z,15.80
2023-02-23T20:20:53.506Z,15.40
2023-02-23T20:23:56.167Z,10.60
2023-02-23T20:26:59.238Z,19.23
2023-02-23T20:30:01.642Z,24.17
2023-02-23T20:33:06.296Z,17.83
2023-02-23T20:36:08.547Z,25.87
2023-02-23T20:39:10.713Z,18.33
2023-02-23T20:42:12.425Z,17.87
2023-02-23T20:45:17.061Z,18.43
2023-02-23T20:48:18.766Z,19.03
2023-02-23T20:51:20.632Z,16.43
2023-02-23T20:54:22.565Z,12.57
2023-02-23T20:57:24.938Z,18.37
2023-02-23T21:00:28.940Z,21.97
2023-02-23T21:03:30.810Z,14.83
2023-02-23T21:06:33.340Z,17.93
2023-02-23T21:09:35.307Z,16.50
2023-02-23T21:12:37.075Z,15.57
2023-02-23T21:15:40.439Z,9.73
2023-02-23T21:18:42.764Z,23.87
2023-02-23T21:21:47.350Z,18.30
2023-02-23T21:24:49.058Z,10.70
2023-02-23T21:27:51.650Z,23.77
2023-02-23T21:30:53.452Z,36.60
2023-02-23T21:33:55.186Z,17.73
2023-02-23T21:36:59.212Z,24.70
2023-02-23T21:40:00.979Z,19.47
2023-02-23T21:43:08.457Z,20.50
2023-02-23T21:46:15.214Z,24.00
2023-02-23T21:49:18.118Z,20.57
2023-02-23T21:52:20.531Z,15.63
2023-02-23T21:55:22.743Z,23.23
2023-02-23T21:58:25.036Z,29.93
2023-02-23T22:01:34.653Z,17.07
2023-02-23T22:04:37.259Z,20.87
2023-02-23T22:07:38.996Z,19.53
2023-02-23T22:10:41.168Z,13.07
2023-02-23T22:13:45.084Z,19.03
2023-02-23T22:16:47.704Z,24.57
2023-02-23T22:19:54.609Z,19.57
2023-02-23T22:22:56.399Z,15.17
2023-02-23T22:26:01.940Z,17.90
2023-02-23T22:29:08.573Z,18.00
2023-02-23T22:32:10.743Z,12.47
2023-02-23T22:35:12.499Z,13.97
2023-02-23T22:38:14.440Z,17.23
2023-02-23T22:41:16.313Z,17.57
2023-02-23T22:44:21.181Z,4.03
2023-02-23T22:47:24.025Z,19.00
2023-02-23T22:50:25.726Z,8.60
2023-02-23T22:53:28.049Z,14.37
2023-02-23T22:56:29.750Z,13.97
2023-02-23T22:59:31.500Z,18.37
2023-02-23T23:02:33.555Z,17.73
2023-02-23T23:05:35.502Z,20.23
2023-02-23T23:08:40.579Z,14.57
2023-02-23T23:11:42.944Z,11.27
2023-02-23T23:14:46.428Z,13.73
2023-02-23T23:17:48.557Z,13.93
2023-02-23T23:20:50.463Z,14.67
2023-02-23T23:23:55.006Z,19.03
2023-02-23T23:27:00.117Z,23.43
2023-02-23T23:30:05.384Z,18.13
2023-02-23T23:33:07.741Z,7.77
2023-02-23T23:36:10.221Z,12.40
2023-02-23T23:39:13.165Z,11.87
2023-02-23T23:42:14.917Z,19.87
2023-02-23T23:45:18.744Z,20.73
2023-02-23T23:48:21.662Z,13.83
2023-02-23T23:51:27.354Z,10.93
2023-02-23T23:54:31.212Z,12.87
2023-02-23T23:57:33.790Z,15.10
